sensor_id;sensor_type;location;lat;lon;timestamp;P1;durP1;ratioP1;P2;durP2;ratioP2
41572;SDS011;27286;47.870;19.006;2022-12-11T00:02:10;2.30;;;0.75;;
41572;SDS011;27286;47.870;19.006;2022-12-11T00:04:35;3.67;;;0.88;;
41572;SDS011;27286;47.870;19.006;2022-12-11T00:07:01;1.40;;;0.50;;
41572;SDS011;27286;47.870;19.006;2022-12-11T00:09:26;1.63;;;0.75;;
41572;SDS011;27286;47.870;19.006;2022-12-11T00:11:52;2.15;;;0.80;;
41572;SDS011;27286;47.870;19.006;2022-12-11T00:14:17;1.58;;;0.50;;
41572;SDS011;27286;47.870;19.006;2022-12-11T00:16:42;1.77;;;0.73;;
41572;SDS011;27286;47.870;19.006;2022-12-11T00:19:08;1.25;;;0.40;;
41572;SDS011;27286;47.870;19.006;2022-12-11T00:21:33;1.27;;;0.57;;
41572;SDS011;27286;47.870;19.006;2022-12-11T00:23:59;1.10;;;0.50;;
41572;SDS011;27286;47.870;19.006;2022-12-11T00:26:24;2.28;;;1.67;;
41572;SDS011;27286;47.870;19.006;2022-12-11T00:28:54;2.85;;;0.60;;
41572;SDS011;27286;47.870;19.006;2022-12-11T00:31:21;1.58;;;0.70;;
41572;SDS011;27286;47.870;19.006;2022-12-11T00:33:47;1.10;;;0.50;;
41572;SDS011;27286;47.870;19.006;2022-12-11T00:36:14;3.35;;;0.82;;
41572;SDS011;27286;47.870;19.006;2022-12-11T00:38:42;2.65;;;0.88;;
41572;SDS011;27286;47.870;19.006;2022-12-11T00:41:08;2.72;;;1.38;;
41572;SDS011;27286;47.870;19.006;2022-12-11T00:43:34;2.33;;;0.60;;
41572;SDS011;27286;47.870;19.006;2022-12-11T00:46:00;2.85;;;0.73;;
41572;SDS011;27286;47.870;19.006;2022-12-11T00:48:26;2.50;;;0.85;;
41572;SDS011;27286;47.870;19.006;2022-12-11T00:50:51;2.13;;;0.77;;
41572;SDS011;27286;47.870;19.006;2022-12-11T00:53:17;2.17;;;0.98;;
41572;SDS011;27286;47.870;19.006;2022-12-11T00:55:42;1.52;;;0.80;;
41572;SDS011;27286;47.870;19.006;2022-12-11T00:58:08;2.67;;;1.00;;
41572;SDS011;27286;47.870;19.006;2022-12-11T01:00:34;2.10;;;0.95;;
41572;SDS011;27286;47.870;19.006;2022-12-11T01:03:00;1.83;;;0.95;;
41572;SDS011;27286;47.870;19.006;2022-12-11T01:05:25;2.20;;;0.95;;
41572;SDS011;27286;47.870;19.006;2022-12-11T01:07:51;2.50;;;1.10;;
41572;SDS011;27286;47.870;19.006;2022-12-11T01:10:16;2.60;;;1.13;;
41572;SDS011;27286;47.870;19.006;2022-12-11T01:12:48;2.42;;;1.20;;
41572;SDS011;27286;47.870;19.006;2022-12-11T01:15:41;3.53;;;1.25;;
41572;SDS011;27286;47.870;19.006;2022-12-11T01:18:09;2.15;;;0.98;;
41572;SDS011;27286;47.870;19.006;2022-12-11T01:20:36;2.83;;;1.30;;
41572;SDS011;27286;47.870;19.006;2022-12-11T01:23:04;2.75;;;1.23;;
41572;SDS011;27286;47.870;19.006;2022-12-11T01:25:30;2.03;;;0.88;;
41572;SDS011;27286;47.870;19.006;2022-12-11T01:27:57;2.88;;;0.88;;
41572;SDS011;27286;47.870;19.006;2022-12-11T01:30:23;2.47;;;1.10;;
41572;SDS011;27286;47.870;19.006;2022-12-11T01:32:49;1.88;;;0.60;;
41572;SDS011;27286;47.870;19.006;2022-12-11T01:35:15;2.67;;;0.80;;
41572;SDS011;27286;47.870;19.006;2022-12-11T01:37:41;2.97;;;0.90;;
41572;SDS011;27286;47.870;19.006;2022-12-11T01:40:07;2.38;;;0.88;;
41572;SDS011;27286;47.870;19.006;2022-12-11T01:42:34;2.25;;;0.80;;
41572;SDS011;27286;47.870;19.006;2022-12-11T01:45:15;1.45;;;0.50;;
41572;SDS011;27286;47.870;19.006;2022-12-11T01:47:47;1.67;;;0.52;;
41572;SDS011;27286;47.870;19.006;2022-12-11T01:50:13;1.88;;;0.50;;
41572;SDS011;27286;47.870;19.006;2022-12-11T01:52:39;1.58;;;0.50;;
41572;SDS011;27286;47.870;19.006;2022-12-11T01:55:07;2.08;;;0.50;;
41572;SDS011;27286;47.870;19.006;2022-12-11T01:57:33;1.73;;;0.60;;
41572;SDS011;27286;47.870;19.006;2022-12-11T02:00:01;1.55;;;0.55;;
41572;SDS011;27286;47.870;19.006;2022-12-11T02:02:29;1.40;;;0.50;;
41572;SDS011;27286;47.870;19.006;2022-12-11T02:04:55;4.05;;;0.43;;
41572;SDS011;27286;47.870;19.006;2022-12-11T02:07:21;1.90;;;0.30;;
41572;SDS011;27286;47.870;19.006;2022-12-11T02:09:47;1.23;;;0.47;;
41572;SDS011;27286;47.870;19.006;2022-12-11T02:20:13;1.52;;;0.80;;
41572;SDS011;27286;47.870;19.006;2022-12-11T02:33:47;1.38;;;0.20;;
41572;SDS011;27286;47.870;19.006;2022-12-11T02:36:19;3.00;;;0.30;;
41572;SDS011;27286;47.870;19.006;2022-12-11T02:38:49;0.73;;;0.30;;
41572;SDS011;27286;47.870;19.006;2022-12-11T02:41:17;2.17;;;0.30;;
41572;SDS011;27286;47.870;19.006;2022-12-11T02:43:44;0.50;;;0.20;;
41572;SDS011;27286;47.870;19.006;2022-12-11T02:46:12;0.30;;;0.10;;
41572;SDS011;27286;47.870;19.006;2022-12-11T02:48:39;0.90;;;0.20;;
41572;SDS011;27286;47.870;19.006;2022-12-11T02:51:06;1.10;;;0.20;;
41572;SDS011;27286;47.870;19.006;2022-12-11T02:53:35;1.02;;;0.10;;
41572;SDS011;27286;47.870;19.006;2022-12-11T02:56:08;1.38;;;0.10;;
41572;SDS011;27286;47.870;19.006;2022-12-11T02:58:38;0.60;;;0.15;;
41572;SDS011;27286;47.870;19.006;2022-12-11T03:01:09;0.60;;;0.20;;
41572;SDS011;27286;47.870;19.006;2022-12-11T03:03:35;0.70;;;0.15;;
41572;SDS011;27286;47.870;19.006;2022-12-11T03:06:01;0.60;;;0.20;;
41572;SDS011;27286;47.870;19.006;2022-12-11T03:08:27;0.95;;;0.30;;
41572;SDS011;27286;47.870;19.006;2022-12-11T03:10:53;0.60;;;0.17;;
41572;SDS011;27286;47.870;19.006;2022-12-11T03:13:19;1.30;;;0.30;;
41572;SDS011;27286;47.870;19.006;2022-12-11T03:18:48;1.35;;;0.40;;
41572;SDS011;27286;47.870;19.006;2022-12-11T03:22:10;3.30;;;0.70;;
41572;SDS011;27286;47.870;19.006;2022-12-11T03:26:56;1.05;;;0.32;;
41572;SDS011;27286;47.870;19.006;2022-12-11T03:29:30;1.58;;;0.30;;
41572;SDS011;27286;47.870;19.006;2022-12-11T03:32:11;2.28;;;0.60;;
41572;SDS011;27286;47.870;19.006;2022-12-11T03:34:47;2.60;;;0.90;;
41572;SDS011;27286;47.870;19.006;2022-12-11T03:37:21;3.92;;;1.20;;
41572;SDS011;27286;47.870;19.006;2022-12-11T03:39:51;7.88;;;1.88;;
41572;SDS011;27286;47.870;19.006;2022-12-11T03:42:18;7.05;;;1.90;;
41572;SDS011;27286;47.870;19.006;2022-12-11T03:44:47;3.70;;;1.23;;
41572;SDS011;27286;47.870;19.006;2022-12-11T03:47:17;4.47;;;1.08;;
41572;SDS011;27286;47.870;19.006;2022-12-11T03:49:46;2.38;;;0.50;;
41572;SDS011;27286;47.870;19.006;2022-12-11T03:52:13;4.28;;;1.27;;
41572;SDS011;27286;47.870;19.006;2022-12-11T03:54:41;3.17;;;0.68;;
41572;SDS011;27286;47.870;19.006;2022-12-11T03:57:10;1.02;;;0.38;;
41572;SDS011;27286;47.870;19.006;2022-12-11T03:59:39;1.20;;;0.35;;
41572;SDS011;27286;47.870;19.006;2022-12-11T04:02:05;1.40;;;0.50;;
41572;SDS011;27286;47.870;19.006;2022-12-11T04:04:39;2.30;;;0.40;;
41572;SDS011;27286;47.870;19.006;2022-12-11T04:07:06;1.10;;;0.30;;
41572;SDS011;27286;47.870;19.006;2022-12-11T04:09:32;1.42;;;0.32;;
41572;SDS011;27286;47.870;19.006;2022-12-11T04:11:58;1.63;;;0.52;;
41572;SDS011;27286;47.870;19.006;2022-12-11T04:14:24;1.73;;;0.45;;
41572;SDS011;27286;47.870;19.006;2022-12-11T04:17:08;1.20;;;0.43;;
41572;SDS011;27286;47.870;19.006;2022-12-11T04:19:33;1.95;;;0.30;;
41572;SDS011;27286;47.870;19.006;2022-12-11T04:22:17;1.30;;;0.30;;
41572;SDS011;27286;47.870;19.006;2022-12-11T04:25:03;0.90;;;0.20;;
41572;SDS011;27286;47.870;19.006;2022-12-11T04:27:30;1.50;;;0.30;;
41572;SDS011;27286;47.870;19.006;2022-12-11T04:30:14;1.08;;;0.30;;
41572;SDS011;27286;47.870;19.006;2022-12-11T04:32:42;4.20;;;0.30;;
41572;SDS011;27286;47.870;19.006;2022-12-11T04:35:08;1.42;;;0.57;;
41572;SDS011;27286;47.870;19.006;2022-12-11T04:37:35;1.90;;;0.10;;
41572;SDS011;27286;47.870;19.006;2022-12-11T04:40:02;1.02;;;0.30;;
41572;SDS011;27286;47.870;19.006;2022-12-11T04:42:29;2.53;;;0.40;;
41572;SDS011;27286;47.870;19.006;2022-12-11T04:44:54;1.30;;;0.32;;
41572;SDS011;27286;47.870;19.006;2022-12-11T04:47:20;1.20;;;0.30;;
41572;SDS011;27286;47.870;19.006;2022-12-11T04:49:45;1.25;;;0.38;;
41572;SDS011;27286;47.870;19.006;2022-12-11T04:52:11;1.15;;;0.30;;
41572;SDS011;27286;47.870;19.006;2022-12-11T04:54:36;1.58;;;0.50;;
41572;SDS011;27286;47.870;19.006;2022-12-11T04:57:01;3.05;;;0.60;;
41572;SDS011;27286;47.870;19.006;2022-12-11T04:59:27;0.93;;;0.30;;
41572;SDS011;27286;47.870;19.006;2022-12-11T05:01:52;1.35;;;0.40;;
41572;SDS011;27286;47.870;19.006;2022-12-11T05:04:18;2.90;;;0.60;;
41572;SDS011;27286;47.870;19.006;2022-12-11T05:06:43;2.53;;;0.50;;
41572;SDS011;27286;47.870;19.006;2022-12-11T05:09:12;2.22;;;0.30;;
41572;SDS011;27286;47.870;19.006;2022-12-11T05:11:37;4.03;;;0.20;;
41572;SDS011;27286;47.870;19.006;2022-12-11T05:14:03;0.63;;;0.20;;
41572;SDS011;27286;47.870;19.006;2022-12-11T05:16:29;0.55;;;0.20;;
41572;SDS011;27286;47.870;19.006;2022-12-11T05:18:54;0.77;;;0.17;;
41572;SDS011;27286;47.870;19.006;2022-12-11T05:21:19;0.60;;;0.10;;
41572;SDS011;27286;47.870;19.006;2022-12-11T05:23:45;0.73;;;0.20;;
41572;SDS011;27286;47.870;19.006;2022-12-11T05:26:12;0.80;;;0.17;;
41572;SDS011;27286;47.870;19.006;2022-12-11T05:28:40;1.38;;;0.43;;
41572;SDS011;27286;47.870;19.006;2022-12-11T05:31:16;1.95;;;0.30;;
41572;SDS011;27286;47.870;19.006;2022-12-11T05:33:43;2.22;;;0.50;;
41572;SDS011;27286;47.870;19.006;2022-12-11T05:36:14;1.77;;;0.40;;
41572;SDS011;27286;47.870;19.006;2022-12-11T05:38:41;0.93;;;0.20;;
41572;SDS011;27286;47.870;19.006;2022-12-11T05:41:07;1.23;;;0.30;;
41572;SDS011;27286;47.870;19.006;2022-12-11T05:43:33;1.85;;;0.52;;
41572;SDS011;27286;47.870;19.006;2022-12-11T05:46:13;1.17;;;0.22;;
41572;SDS011;27286;47.870;19.006;2022-12-11T05:48:40;0.65;;;0.20;;
41572;SDS011;27286;47.870;19.006;2022-12-11T05:51:07;0.52;;;0.20;;
41572;SDS011;27286;47.870;19.006;2022-12-11T05:53:36;1.00;;;0.40;;
41572;SDS011;27286;47.870;19.006;2022-12-11T05:56:03;0.85;;;0.20;;
41572;SDS011;27286;47.870;19.006;2022-12-11T05:58:31;1.50;;;0.60;;
41572;SDS011;27286;47.870;19.006;2022-12-11T06:00:57;1.38;;;0.30;;
41572;SDS011;27286;47.870;19.006;2022-12-11T06:03:23;0.93;;;0.30;;
41572;SDS011;27286;47.870;19.006;2022-12-11T06:05:48;1.10;;;0.32;;
41572;SDS011;27286;47.870;19.006;2022-12-11T06:08:13;0.70;;;0.40;;
41572;SDS011;27286;47.870;19.006;2022-12-11T06:10:46;1.55;;;0.30;;
41572;SDS011;27286;47.870;19.006;2022-12-11T06:13:12;1.05;;;0.30;;
41572;SDS011;27286;47.870;19.006;2022-12-11T06:15:38;1.92;;;0.30;;
41572;SDS011;27286;47.870;19.006;2022-12-11T06:18:04;1.25;;;0.40;;
41572;SDS011;27286;47.870;19.006;2022-12-11T06:20:30;1.25;;;0.47;;
41572;SDS011;27286;47.870;19.006;2022-12-11T06:22:57;0.98;;;0.20;;
41572;SDS011;27286;47.870;19.006;2022-12-11T06:25:23;1.75;;;0.40;;
41572;SDS011;27286;47.870;19.006;2022-12-11T06:27:49;3.97;;;1.08;;
41572;SDS011;27286;47.870;19.006;2022-12-11T06:30:15;5.18;;;1.20;;
41572;SDS011;27286;47.870;19.006;2022-12-11T06:32:40;5.38;;;2.30;;
41572;SDS011;27286;47.870;19.006;2022-12-11T06:35:07;3.03;;;1.38;;
41572;SDS011;27286;47.870;19.006;2022-12-11T06:37:33;1.08;;;0.40;;
41572;SDS011;27286;47.870;19.006;2022-12-11T06:39:59;2.92;;;0.98;;
41572;SDS011;27286;47.870;19.006;2022-12-11T06:42:25;1.63;;;0.60;;
41572;SDS011;27286;47.870;19.006;2022-12-11T06:44:50;4.30;;;1.23;;
41572;SDS011;27286;47.870;19.006;2022-12-11T06:47:16;2.30;;;0.60;;
41572;SDS011;27286;47.870;19.006;2022-12-11T06:49:41;2.83;;;0.85;;
41572;SDS011;27286;47.870;19.006;2022-12-11T06:52:07;2.30;;;0.77;;
41572;SDS011;27286;47.870;19.006;2022-12-11T06:54:32;1.88;;;0.65;;
41572;SDS011;27286;47.870;19.006;2022-12-11T06:56:57;1.73;;;0.50;;
41572;SDS011;27286;47.870;19.006;2022-12-11T06:59:23;1.75;;;0.60;;
41572;SDS011;27286;47.870;19.006;2022-12-11T07:01:48;2.20;;;0.70;;
41572;SDS011;27286;47.870;19.006;2022-12-11T07:04:14;3.65;;;0.63;;
41572;SDS011;27286;47.870;19.006;2022-12-11T07:06:39;3.65;;;1.67;;
41572;SDS011;27286;47.870;19.006;2022-12-11T07:09:05;5.30;;;1.63;;
41572;SDS011;27286;47.870;19.006;2022-12-11T07:11:31;1.55;;;0.55;;
41572;SDS011;27286;47.870;19.006;2022-12-11T07:13:59;2.75;;;1.17;;
41572;SDS011;27286;47.870;19.006;2022-12-11T07:16:25;1.42;;;0.52;;
41572;SDS011;27286;47.870;19.006;2022-12-11T07:18:51;2.60;;;1.10;;
41572;SDS011;27286;47.870;19.006;2022-12-11T07:21:17;3.00;;;1.45;;
41572;SDS011;27286;47.870;19.006;2022-12-11T07:23:44;2.30;;;0.98;;
41572;SDS011;27286;47.870;19.006;2022-12-11T07:26:10;1.63;;;0.60;;
41572;SDS011;27286;47.870;19.006;2022-12-11T07:28:38;1.90;;;0.60;;
41572;SDS011;27286;47.870;19.006;2022-12-11T07:31:11;2.53;;;1.15;;
41572;SDS011;27286;47.870;19.006;2022-12-11T07:33:41;4.07;;;1.35;;
41572;SDS011;27286;47.870;19.006;2022-12-11T07:36:08;1.40;;;0.50;;
41572;SDS011;27286;47.870;19.006;2022-12-11T07:38:35;2.60;;;0.75;;
41572;SDS011;27286;47.870;19.006;2022-12-11T07:41:01;1.50;;;0.52;;
41572;SDS011;27286;47.870;19.006;2022-12-11T07:43:29;3.55;;;0.70;;
41572;SDS011;27286;47.870;19.006;2022-12-11T07:45:59;3.58;;;0.93;;
41572;SDS011;27286;47.870;19.006;2022-12-11T07:48:25;2.60;;;0.68;;
41572;SDS011;27286;47.870;19.006;2022-12-11T07:50:51;1.98;;;0.60;;
41572;SDS011;27286;47.870;19.006;2022-12-11T07:53:16;2.40;;;0.80;;
41572;SDS011;27286;47.870;19.006;2022-12-11T07:55:42;2.92;;;1.20;;
41572;SDS011;27286;47.870;19.006;2022-12-11T07:58:07;6.43;;;2.30;;
41572;SDS011;27286;47.870;19.006;2022-12-11T08:00:32;7.97;;;2.90;;
41572;SDS011;27286;47.870;19.006;2022-12-11T08:02:58;5.70;;;1.00;;
41572;SDS011;27286;47.870;19.006;2022-12-11T08:05:23;2.33;;;0.60;;
41572;SDS011;27286;47.870;19.006;2022-12-11T08:07:48;2.85;;;1.33;;
41572;SDS011;27286;47.870;19.006;2022-12-11T08:10:14;2.85;;;0.95;;
41572;SDS011;27286;47.870;19.006;2022-12-11T08:12:39;2.90;;;0.82;;
41572;SDS011;27286;47.870;19.006;2022-12-11T08:15:05;2.35;;;0.85;;
41572;SDS011;27286;47.870;19.006;2022-12-11T08:17:31;2.45;;;1.08;;
41572;SDS011;27286;47.870;19.006;2022-12-11T08:19:56;4.18;;;0.85;;
41572;SDS011;27286;47.870;19.006;2022-12-11T08:22:22;4.10;;;1.00;;
41572;SDS011;27286;47.870;19.006;2022-12-11T08:24:47;3.05;;;1.20;;
41572;SDS011;27286;47.870;19.006;2022-12-11T08:27:12;2.53;;;0.75;;
41572;SDS011;27286;47.870;19.006;2022-12-11T08:29:38;2.58;;;0.73;;
41572;SDS011;27286;47.870;19.006;2022-12-11T08:32:03;3.42;;;1.00;;
41572;SDS011;27286;47.870;19.006;2022-12-11T08:34:29;3.58;;;0.98;;
41572;SDS011;27286;47.870;19.006;2022-12-11T08:36:54;3.20;;;1.02;;
41572;SDS011;27286;47.870;19.006;2022-12-11T08:39:19;2.83;;;1.17;;
41572;SDS011;27286;47.870;19.006;2022-12-11T08:41:45;2.83;;;0.90;;
41572;SDS011;27286;47.870;19.006;2022-12-11T08:44:11;2.13;;;0.93;;
41572;SDS011;27286;47.870;19.006;2022-12-11T08:46:37;3.78;;;1.15;;
41572;SDS011;27286;47.870;19.006;2022-12-11T08:49:03;2.33;;;1.00;;
41572;SDS011;27286;47.870;19.006;2022-12-11T08:51:28;3.75;;;1.65;;
41572;SDS011;27286;47.870;19.006;2022-12-11T08:53:55;4.20;;;1.27;;
41572;SDS011;27286;47.870;19.006;2022-12-11T08:56:25;3.85;;;1.48;;
41572;SDS011;27286;47.870;19.006;2022-12-11T08:58:51;6.03;;;1.73;;
41572;SDS011;27286;47.870;19.006;2022-12-11T09:01:18;2.97;;;1.33;;
41572;SDS011;27286;47.870;19.006;2022-12-11T09:03:47;3.22;;;1.13;;
41572;SDS011;27286;47.870;19.006;2022-12-11T09:06:14;2.95;;;0.80;;
41572;SDS011;27286;47.870;19.006;2022-12-11T09:08:42;2.78;;;1.08;;
41572;SDS011;27286;47.870;19.006;2022-12-11T09:11:14;3.45;;;1.58;;
41572;SDS011;27286;47.870;19.006;2022-12-11T09:13:42;4.97;;;0.80;;
41572;SDS011;27286;47.870;19.006;2022-12-11T09:16:12;5.13;;;1.67;;
41572;SDS011;27286;47.870;19.006;2022-12-11T09:18:41;3.03;;;1.33;;
41572;SDS011;27286;47.870;19.006;2022-12-11T09:21:08;5.15;;;1.10;;
41572;SDS011;27286;47.870;19.006;2022-12-11T09:23:38;2.53;;;0.70;;
41572;SDS011;27286;47.870;19.006;2022-12-11T09:26:04;4.25;;;1.17;;
41572;SDS011;27286;47.870;19.006;2022-12-11T09:28:37;2.10;;;0.80;;
41572;SDS011;27286;47.870;19.006;2022-12-11T09:31:07;4.03;;;1.80;;
41572;SDS011;27286;47.870;19.006;2022-12-11T09:33:38;4.40;;;1.33;;
41572;SDS011;27286;47.870;19.006;2022-12-11T09:36:03;2.50;;;0.75;;
41572;SDS011;27286;47.870;19.006;2022-12-11T09:38:29;4.00;;;1.60;;
41572;SDS011;27286;47.870;19.006;2022-12-11T09:40:56;2.70;;;0.60;;
41572;SDS011;27286;47.870;19.006;2022-12-11T09:43:45;1.95;;;0.80;;
41572;SDS011;27286;47.870;19.006;2022-12-11T09:46:12;3.53;;;1.25;;
41572;SDS011;27286;47.870;19.006;2022-12-11T09:48:39;4.85;;;0.65;;
41572;SDS011;27286;47.870;19.006;2022-12-11T09:53:48;2.88;;;0.88;;
41572;SDS011;27286;47.870;19.006;2022-12-11T09:56:17;2.40;;;1.00;;
41572;SDS011;27286;47.870;19.006;2022-12-11T10:06:41;1.95;;;0.73;;
41572;SDS011;27286;47.870;19.006;2022-12-11T10:18:17;3.42;;;1.33;;
41572;SDS011;27286;47.870;19.006;2022-12-11T10:20:47;4.25;;;0.60;;
41572;SDS011;27286;47.870;19.006;2022-12-11T10:23:16;1.58;;;0.65;;
41572;SDS011;27286;47.870;19.006;2022-12-11T10:25:45;5.47;;;1.40;;
41572;SDS011;27286;47.870;19.006;2022-12-11T10:28:16;3.20;;;1.05;;
41572;SDS011;27286;47.870;19.006;2022-12-11T10:35:49;2.42;;;0.73;;
41572;SDS011;27286;47.870;19.006;2022-12-11T10:40:46;2.75;;;0.82;;
41572;SDS011;27286;47.870;19.006;2022-12-11T10:43:15;1.88;;;0.68;;
41572;SDS011;27286;47.870;19.006;2022-12-11T10:45:49;1.42;;;0.65;;
41572;SDS011;27286;47.870;19.006;2022-12-11T10:48:17;2.55;;;0.55;;
41572;SDS011;27286;47.870;19.006;2022-12-11T10:50:43;4.28;;;1.88;;
41572;SDS011;27286;47.870;19.006;2022-12-11T10:53:22;2.33;;;0.60;;
41572;SDS011;27286;47.870;19.006;2022-12-11T10:55:49;2.40;;;0.73;;
41572;SDS011;27286;47.870;19.006;2022-12-11T10:58:16;4.72;;;2.70;;
41572;SDS011;27286;47.870;19.006;2022-12-11T11:00:44;3.45;;;1.30;;
41572;SDS011;27286;47.870;19.006;2022-12-11T11:03:26;1.85;;;0.50;;
41572;SDS011;27286;47.870;19.006;2022-12-11T11:06:02;2.08;;;0.95;;
41572;SDS011;27286;47.870;19.006;2022-12-11T11:08:42;2.70;;;0.90;;
41572;SDS011;27286;47.870;19.006;2022-12-11T11:11:23;3.72;;;0.70;;
41572;SDS011;27286;47.870;19.006;2022-12-11T11:13:52;4.40;;;1.08;;
41572;SDS011;27286;47.870;19.006;2022-12-11T11:16:30;6.93;;;3.95;;
41572;SDS011;27286;47.870;19.006;2022-12-11T11:18:59;2.60;;;1.00;;
41572;SDS011;27286;47.870;19.006;2022-12-11T11:21:25;1.92;;;0.90;;
41572;SDS011;27286;47.870;19.006;2022-12-11T11:23:52;4.47;;;1.48;;
41572;SDS011;27286;47.870;19.006;2022-12-11T11:26:18;2.10;;;0.70;;
41572;SDS011;27286;47.870;19.006;2022-12-11T11:28:50;1.75;;;0.80;;
41572;SDS011;27286;47.870;19.006;2022-12-11T11:31:19;2.63;;;1.00;;
41572;SDS011;27286;47.870;19.006;2022-12-11T11:36:32;3.53;;;1.55;;
41572;SDS011;27286;47.870;19.006;2022-12-11T11:44:27;3.35;;;1.40;;
41572;SDS011;27286;47.870;19.006;2022-12-11T11:47:05;2.20;;;0.70;;
41572;SDS011;27286;47.870;19.006;2022-12-11T11:50:00;2.40;;;0.90;;
41572;SDS011;27286;47.870;19.006;2022-12-11T11:55:05;17.10;;;5.93;;
41572;SDS011;27286;47.870;19.006;2022-12-11T12:00:27;2.70;;;1.33;;
41572;SDS011;27286;47.870;19.006;2022-12-11T12:02:54;3.13;;;1.33;;
41572;SDS011;27286;47.870;19.006;2022-12-11T12:05:26;3.00;;;1.25;;
41572;SDS011;27286;47.870;19.006;2022-12-11T12:08:06;2.63;;;0.98;;
41572;SDS011;27286;47.870;19.006;2022-12-11T12:10:44;3.50;;;1.02;;
41572;SDS011;27286;47.870;19.006;2022-12-11T12:13:27;2.35;;;0.85;;
41572;SDS011;27286;47.870;19.006;2022-12-11T12:16:01;2.63;;;1.00;;
41572;SDS011;27286;47.870;19.006;2022-12-11T12:21:21;6.88;;;2.90;;
41572;SDS011;27286;47.870;19.006;2022-12-11T12:26:30;3.22;;;1.42;;
41572;SDS011;27286;47.870;19.006;2022-12-11T12:34:25;4.93;;;2.17;;
41572;SDS011;27286;47.870;19.006;2022-12-11T12:45:21;3.63;;;1.50;;
41572;SDS011;27286;47.870;19.006;2022-12-11T12:47:49;4.38;;;2.13;;
41572;SDS011;27286;47.870;19.006;2022-12-11T12:50:16;6.88;;;3.05;;
41572;SDS011;27286;47.870;19.006;2022-12-11T12:52:44;6.32;;;1.88;;
41572;SDS011;27286;47.870;19.006;2022-12-11T13:02:50;6.22;;;3.00;;
41572;SDS011;27286;47.870;19.006;2022-12-11T13:05:27;7.20;;;2.33;;
41572;SDS011;27286;47.870;19.006;2022-12-11T13:07:58;4.25;;;1.90;;
41572;SDS011;27286;47.870;19.006;2022-12-11T13:10:33;5.57;;;2.28;;
41572;SDS011;27286;47.870;19.006;2022-12-11T13:13:01;5.28;;;2.58;;
41572;SDS011;27286;47.870;19.006;2022-12-11T13:15:29;5.78;;;3.60;;
41572;SDS011;27286;47.870;19.006;2022-12-11T13:17:55;6.90;;;3.70;;
41572;SDS011;27286;47.870;19.006;2022-12-11T13:20:23;7.65;;;3.75;;
41572;SDS011;27286;47.870;19.006;2022-12-11T13:25:21;6.55;;;2.47;;
41572;SDS011;27286;47.870;19.006;2022-12-11T13:27:49;9.20;;;4.45;;
41572;SDS011;27286;47.870;19.006;2022-12-11T13:32:48;9.85;;;4.80;;
41572;SDS011;27286;47.870;19.006;2022-12-11T13:35:29;7.60;;;4.00;;
41572;SDS011;27286;47.870;19.006;2022-12-11T13:38:00;10.38;;;4.45;;
41572;SDS011;27286;47.870;19.006;2022-12-11T13:40:37;19.95;;;11.75;;
41572;SDS011;27286;47.870;19.006;2022-12-11T13:43:06;17.00;;;8.73;;
41572;SDS011;27286;47.870;19.006;2022-12-11T13:48:18;8.32;;;5.22;;
41572;SDS011;27286;47.870;19.006;2022-12-11T13:50:49;5.70;;;3.35;;
41572;SDS011;27286;47.870;19.006;2022-12-11T13:53:17;10.00;;;5.72;;
41572;SDS011;27286;47.870;19.006;2022-12-11T13:55:43;15.52;;;7.28;;
41572;SDS011;27286;47.870;19.006;2022-12-11T13:58:16;9.02;;;4.20;;
41572;SDS011;27286;47.870;19.006;2022-12-11T14:00:51;5.17;;;3.20;;
41572;SDS011;27286;47.870;19.006;2022-12-11T14:03:24;5.78;;;3.00;;
41572;SDS011;27286;47.870;19.006;2022-12-11T14:05:50;7.82;;;4.38;;
41572;SDS011;27286;47.870;19.006;2022-12-11T14:08:17;4.53;;;2.15;;
41572;SDS011;27286;47.870;19.006;2022-12-11T14:10:50;4.03;;;2.42;;
41572;SDS011;27286;47.870;19.006;2022-12-11T14:13:21;14.40;;;6.28;;
41572;SDS011;27286;47.870;19.006;2022-12-11T14:15:49;7.43;;;3.63;;
41572;SDS011;27286;47.870;19.006;2022-12-11T14:18:22;4.78;;;2.50;;
41572;SDS011;27286;47.870;19.006;2022-12-11T14:20:54;5.47;;;3.10;;
41572;SDS011;27286;47.870;19.006;2022-12-11T14:23:23;5.88;;;3.00;;
41572;SDS011;27286;47.870;19.006;2022-12-11T14:25:54;5.60;;;2.75;;
41572;SDS011;27286;47.870;19.006;2022-12-11T14:28:22;5.78;;;3.42;;
41572;SDS011;27286;47.870;19.006;2022-12-11T14:30:52;6.47;;;3.22;;
41572;SDS011;27286;47.870;19.006;2022-12-11T14:33:24;6.50;;;2.90;;
41572;SDS011;27286;47.870;19.006;2022-12-11T14:35:55;5.25;;;2.97;;
41572;SDS011;27286;47.870;19.006;2022-12-11T14:38:22;6.72;;;3.10;;
41572;SDS011;27286;47.870;19.006;2022-12-11T14:41:24;8.63;;;3.95;;
41572;SDS011;27286;47.870;19.006;2022-12-11T14:44:07;6.80;;;3.28;;
41572;SDS011;27286;47.870;19.006;2022-12-11T14:46:48;12.73;;;6.10;;
41572;SDS011;27286;47.870;19.006;2022-12-11T14:49:25;6.05;;;3.92;;
41572;SDS011;27286;47.870;19.006;2022-12-11T14:52:24;6.63;;;3.42;;
41572;SDS011;27286;47.870;19.006;2022-12-11T14:55:01;8.57;;;4.15;;
41572;SDS011;27286;47.870;19.006;2022-12-11T14:57:31;9.07;;;4.25;;
41572;SDS011;27286;47.870;19.006;2022-12-11T14:59:58;7.82;;;3.60;;
41572;SDS011;27286;47.870;19.006;2022-12-11T15:04:58;6.10;;;3.45;;
41572;SDS011;27286;47.870;19.006;2022-12-11T15:07:43;10.73;;;5.00;;
41572;SDS011;27286;47.870;19.006;2022-12-11T15:10:25;13.75;;;5.80;;
41572;SDS011;27286;47.870;19.006;2022-12-11T15:13:00;6.63;;;3.20;;
41572;SDS011;27286;47.870;19.006;2022-12-11T15:15:27;7.15;;;3.85;;
41572;SDS011;27286;47.870;19.006;2022-12-11T15:17:55;7.28;;;3.75;;
41572;SDS011;27286;47.870;19.006;2022-12-11T15:20:22;7.18;;;4.50;;
41572;SDS011;27286;47.870;19.006;2022-12-11T15:22:51;7.68;;;3.80;;
41572;SDS011;27286;47.870;19.006;2022-12-11T15:25:21;7.25;;;4.10;;
41572;SDS011;27286;47.870;19.006;2022-12-11T15:27:52;8.02;;;3.92;;
41572;SDS011;27286;47.870;19.006;2022-12-11T15:35:35;8.77;;;4.13;;
41572;SDS011;27286;47.870;19.006;2022-12-11T15:38:02;7.75;;;4.10;;
41572;SDS011;27286;47.870;19.006;2022-12-11T15:40:28;7.70;;;4.63;;
41572;SDS011;27286;47.870;19.006;2022-12-11T15:42:54;8.88;;;4.65;;
41572;SDS011;27286;47.870;19.006;2022-12-11T15:45:21;8.13;;;3.67;;
41572;SDS011;27286;47.870;19.006;2022-12-11T15:47:49;10.70;;;4.63;;
41572;SDS011;27286;47.870;19.006;2022-12-11T15:50:19;7.90;;;4.32;;
41572;SDS011;27286;47.870;19.006;2022-12-11T15:52:53;6.78;;;4.10;;
41572;SDS011;27286;47.870;19.006;2022-12-11T15:55:20;8.48;;;4.15;;
41572;SDS011;27286;47.870;19.006;2022-12-11T15:57:54;9.07;;;4.82;;
41572;SDS011;27286;47.870;19.006;2022-12-11T16:00:22;7.75;;;4.38;;
41572;SDS011;27286;47.870;19.006;2022-12-11T16:02:52;11.00;;;5.07;;
41572;SDS011;27286;47.870;19.006;2022-12-11T16:05:18;8.27;;;4.47;;
41572;SDS011;27286;47.870;19.006;2022-12-11T16:07:44;7.05;;;3.90;;
41572;SDS011;27286;47.870;19.006;2022-12-11T16:10:14;10.93;;;4.93;;
41572;SDS011;27286;47.870;19.006;2022-12-11T16:12:41;7.93;;;4.75;;
41572;SDS011;27286;47.870;19.006;2022-12-11T16:15:08;11.27;;;4.93;;
41572;SDS011;27286;47.870;19.006;2022-12-11T16:17:35;8.30;;;4.22;;
41572;SDS011;27286;47.870;19.006;2022-12-11T16:20:20;7.75;;;4.85;;
41572;SDS011;27286;47.870;19.006;2022-12-11T16:22:46;12.25;;;4.45;;
41572;SDS011;27286;47.870;19.006;2022-12-11T16:25:31;9.52;;;5.55;;
41572;SDS011;27286;47.870;19.006;2022-12-11T16:27:58;8.77;;;4.97;;
41572;SDS011;27286;47.870;19.006;2022-12-11T16:30:25;9.02;;;4.28;;
41572;SDS011;27286;47.870;19.006;2022-12-11T16:32:53;6.50;;;4.53;;